createdAt,value
2019-06-15T00:00:16.094Z,93.14
2019-06-15T00:01:16.110Z,93.04
2019-06-15T00:02:16.060Z,92.74
2019-06-15T00:03:16.049Z,92.74
2019-06-15T00:04:16.041Z,93.18
2019-06-15T00:05:16.029Z,94.19
2019-06-15T00:06:16.030Z,94.09
2019-06-15T00:07:16.062Z,94.09
2019-06-15T00:08:16.005Z,93.89
2019-06-15T00:09:15.987Z,93.99
2019-06-15T00:10:15.975Z,93.49
2019-06-15T00:11:15.964Z,93.79
2019-06-15T00:12:15.967Z,94.49
2019-06-15T00:13:15.991Z,94.39
2019-06-15T00:14:15.941Z,93.89
2019-06-15T00:15:15.922Z,93.59
2019-06-15T00:16:15.921Z,93.99
2019-06-15T00:17:15.896Z,94.09
2019-06-15T00:18:15.928Z,94.09
2019-06-15T00:19:15.941Z,93.49
2019-06-15T00:20:15.869Z,93.73
2019-06-15T00:21:15.853Z,93.84
2019-06-15T00:22:15.851Z,93.73
2019-06-15T00:23:15.840Z,93.79
2019-06-15T00:24:15.837Z,93.73
2019-06-15T00:25:15.865Z,93.73
2019-06-15T00:26:15.804Z,93.73
2019-06-15T00:27:15.789Z,93.53
2019-06-15T00:28:15.777Z,94.13
2019-06-15T00:29:15.768Z,93.13
2019-06-15T00:30:15.755Z,92.52
2019-06-15T00:31:15.797Z,93.02
2019-06-15T00:32:15.744Z,93.79
2019-06-15T00:33:15.725Z,93.84
2019-06-15T00:34:15.714Z,93.84
2019-06-15T00:35:15.715Z,93.93
2019-06-15T00:36:15.689Z,93.93
2019-06-15T00:37:15.718Z,93.84
2019-06-15T00:38:15.678Z,94.04
2019-06-15T00:39:15.658Z,93.73
2019-06-15T00:40:15.648Z,94.13
2019-06-15T00:41:15.636Z,94.34
2019-06-15T00:42:15.623Z,93.53
2019-06-15T00:43:15.650Z,94.34
2019-06-15T00:44:15.628Z,94.13
2019-06-15T00:45:15.592Z,93.53
2019-06-15T00:46:15.580Z,93.73
2019-06-15T00:47:15.571Z,93.73
2019-06-15T00:48:15.562Z,93.73
2019-06-15T00:49:15.592Z,93.33
2019-06-15T00:50:15.541Z,94.04
2019-06-15T00:51:15.547Z,93.63
2019-06-15T00:52:15.522Z,93.93
2019-06-15T00:53:15.506Z,93.63
2019-06-15T00:54:15.501Z,93.84
2019-06-15T00:55:15.540Z,93.68
2019-06-15T00:56:15.469Z,94.34
2019-06-15T00:57:15.470Z,93.68
2019-06-15T00:58:15.447Z,93.53
2019-06-15T00:59:15.436Z,93.88
2019-06-15T01:00:15.425Z,93.88
2019-06-15T01:01:15.450Z,94.18
2019-06-15T01:02:15.405Z,93.77
2019-06-15T01:03:15.407Z,94.38
2019-06-15T01:04:15.385Z,94.28
2019-06-15T01:05:15.373Z,94.24
2019-06-15T01:06:15.360Z,94.28
2019-06-15T01:07:15.383Z,94.68
2019-06-15T01:08:15.335Z,94.79
2019-06-15T01:09:15.362Z,94.59
2019-06-15T01:10:15.328Z,94.38
2019-06-15T01:11:15.301Z,93.77
2019-06-15T01:12:15.295Z,94.48
2019-06-15T01:13:15.315Z,94.68
2019-06-15T01:14:15.271Z,94.68
2019-06-15T01:15:15.259Z,94.28
2019-06-15T01:16:15.264Z,93.57
2019-06-15T01:17:15.252Z,94.18
2019-06-15T01:18:15.225Z,94.18
2019-06-15T01:19:15.250Z,94.28
2019-06-15T01:20:15.206Z,94.08
2019-06-15T01:21:15.194Z,93.92
2019-06-15T01:22:15.182Z,93.92
2019-06-15T01:23:15.182Z,93.92
2019-06-15T01:24:15.159Z,94.83
2019-06-15T01:25:15.220Z,94.32
2019-06-15T01:26:15.137Z,94.12
2019-06-15T01:27:15.125Z,94.32
2019-06-15T01:28:15.117Z,94.63
2019-06-15T01:29:15.132Z,94.43
2019-06-15T01:30:15.094Z,94.12
2019-06-15T01:31:15.117Z,94.27
2019-06-15T01:32:15.069Z,94.57
2019-06-15T01:33:15.057Z,94.27
2019-06-15T01:34:15.046Z,94.47
2019-06-15T01:35:15.054Z,95.18
2019-06-15T01:36:15.025Z,95.32
2019-06-15T01:37:15.064Z,95.89
2019-06-15T01:38:15.001Z,95.28
2019-06-15T01:39:14.990Z,95.93
2019-06-15T01:40:14.984Z,95.78
2019-06-15T01:41:14.981Z,95.83
2019-06-15T01:42:14.958Z,95.07
2019-06-15T01:43:14.982Z,95.28
2019-06-15T01:44:14.941Z,95.43
2019-06-15T01:45:14.933Z,95.07
2019-06-15T01:46:14.919Z,95.63
2019-06-15T01:47:14.914Z,95.38
2019-06-15T01:48:14.893Z,95.58
2019-06-15T01:49:14.932Z,95.18
2019-06-15T01:50:14.905Z,95.58
2019-06-15T01:51:14.857Z,95.38
2019-06-15T01:52:14.856Z,95.68
2019-06-15T01:53:14.859Z,95.78
2019-06-15T01:54:14.826Z,95.38
2019-06-15T01:55:20.763Z,95.78
2019-06-15T01:56:15.802Z,95.48
2019-06-15T01:57:14.793Z,95.98
2019-06-15T01:58:14.781Z,95.38
2019-06-15T01:59:14.788Z,95.58
2019-06-15T02:00:14.768Z,95.89
2019-06-15T02:01:14.783Z,95.89
2019-06-15T02:02:14.742Z,96.09
2019-06-15T02:03:14.729Z,95.89
2019-06-15T02:04:14.717Z,95.78
2019-06-15T02:05:14.720Z,95.58
2019-06-15T02:06:14.693Z,94.98
2019-06-15T02:07:14.724Z,94.67
2019-06-15T02:08:14.677Z,95.38
2019-06-15T02:09:14.663Z,95.07
2019-06-15T02:10:14.653Z,95.07
2019-06-15T02:11:14.655Z,94.82
2019-06-15T02:12:14.629Z,93.96
2019-06-15T02:13:14.677Z,94.21
2019-06-15T02:14:14.608Z,94.27
2019-06-15T02:15:14.595Z,94.78
2019-06-15T02:16:14.585Z,95.18
2019-06-15T02:17:14.590Z,95.18
2019-06-15T02:18:14.563Z,95.18
2019-06-15T02:19:14.590Z,94.47
2019-06-15T02:20:14.539Z,94.57
2019-06-15T02:21:14.530Z,94.37
2019-06-15T02:22:14.517Z,94.27
2019-06-15T02:23:14.538Z,93.96
2019-06-15T02:24:14.496Z,94.17
2019-06-15T02:25:14.520Z,94.17
2019-06-15T02:26:14.474Z,94.27
2019-06-15T02:27:14.468Z,94.27
2019-06-15T02:28:14.454Z,94.07
2019-06-15T02:29:14.467Z,94.17
2019-06-15T02:30:14.430Z,94.73
2019-06-15T02:31:14.472Z,94.98
2019-06-15T02:32:14.409Z,94.87
2019-06-15T02:33:14.399Z,94.57
2019-06-15T02:34:14.395Z,94.57
2019-06-15T02:35:14.401Z,94.47
2019-06-15T02:36:14.364Z,94.17
2019-06-15T02:37:14.394Z,94.37
2019-06-15T02:38:14.342Z,94.32
2019-06-15T02:39:14.333Z,93.76
2019-06-15T02:40:14.324Z,94.17
2019-06-15T02:41:14.333Z,93.76
2019-06-15T02:42:14.300Z,93.87
2019-06-15T02:43:14.324Z,94.07
2019-06-15T02:44:14.277Z,93.96
2019-06-15T02:45:14.265Z,94.37
2019-06-15T02:46:14.268Z,94.27
2019-06-15T02:47:14.265Z,94.27
2019-06-15T02:48:14.238Z,94.67
2019-06-15T02:49:14.268Z,94.37
2019-06-15T02:50:14.212Z,94.27
2019-06-15T02:51:14.198Z,94.42
2019-06-15T02:52:14.188Z,94.31
2019-06-15T02:53:14.181Z,94.62
2019-06-15T02:54:14.166Z,94.56
2019-06-15T02:55:14.198Z,94.36
2019-06-15T02:56:14.182Z,94.31
2019-06-15T02:57:14.139Z,94.76
2019-06-15T02:58:14.123Z,94.76
2019-06-15T02:59:14.120Z,94.96
2019-06-15T03:00:14.099Z,95.12
2019-06-15T03:01:14.153Z,95.27
2019-06-15T03:02:14.080Z,95.32
2019-06-15T03:03:14.065Z,95.93
2019-06-15T03:04:14.059Z,95.43
2019-06-15T03:05:14.069Z,95.32
2019-06-15T03:06:14.033Z,95.32
2019-06-15T03:07:14.058Z,95.22
2019-06-15T03:08:14.018Z,95.83
2019-06-15T03:09:14.002Z,95.83
2019-06-15T03:10:13.993Z,95.87
2019-06-15T03:11:14.002Z,95.47
2019-06-15T03:12:13.966Z,95.78
2019-06-15T03:13:14.008Z,95.67
2019-06-15T03:14:13.946Z,94.62
2019-06-15T03:15:13.933Z,95.27
2019-06-15T03:16:13.929Z,95.22
2019-06-15T03:17:13.944Z,95.43
2019-06-15T03:18:13.901Z,95.43
2019-06-15T03:19:13.926Z,95.43
2019-06-15T03:20:13.883Z,95.32
2019-06-15T03:21:13.869Z,94.82
2019-06-15T03:22:13.858Z,94.31
2019-06-15T03:23:13.864Z,94.21
2019-06-15T03:24:13.835Z,94.42
2019-06-15T03:25:13.863Z,93.81
2019-06-15T03:26:13.816Z,94.31
2019-06-15T03:27:13.806Z,94.01
2019-06-15T03:28:13.794Z,94.11
2019-06-15T03:29:13.806Z,93.81
2019-06-15T03:30:13.771Z,94.47
2019-06-15T03:31:13.805Z,93.87
2019-06-15T03:32:13.749Z,93.26
2019-06-15T03:33:13.754Z,93.96
2019-06-15T03:34:13.731Z,93.16
2019-06-15T03:35:13.730Z,93.36
2019-06-15T03:36:13.704Z,93.36
2019-06-15T03:37:13.725Z,93.26
2019-06-15T03:38:13.683Z,94.17
2019-06-15T03:39:13.677Z,93.46
2019-06-15T03:40:13.663Z,94.17
2019-06-15T03:41:13.726Z,93.66
2019-06-15T03:42:13.638Z,93.96
2019-06-15T03:43:13.665Z,93.96
2019-06-15T03:44:13.616Z,94.27
2019-06-15T03:45:13.604Z,93.66
2019-06-15T03:46:13.590Z,93.96
2019-06-15T03:47:13.592Z,94.27
2019-06-15T03:48:13.589Z,93.76
2019-06-15T03:49:13.626Z,93.87
2019-06-15T03:50:13.546Z,93.87
2019-06-15T03:51:13.539Z,94.17
2019-06-15T03:52:13.524Z,94.27
2019-06-15T03:53:13.532Z,94.17
2019-06-15T03:54:13.509Z,94.07
2019-06-15T03:55:13.528Z,93.96
2019-06-15T03:56:21.471Z,94.17
2019-06-15T03:57:14.470Z,94.27
2019-06-15T03:58:13.457Z,94.47
2019-06-15T03:59:13.477Z,93.87
2019-06-15T04:00:13.445Z,93.87
2019-06-15T04:01:13.476Z,94.17
2019-06-15T04:02:13.412Z,93.87
2019-06-15T04:03:13.409Z,94.17
2019-06-15T04:04:13.395Z,93.87
2019-06-15T04:05:13.399Z,94.27
2019-06-15T04:06:13.400Z,94.27
2019-06-15T04:07:13.394Z,94.37
2019-06-15T04:08:13.353Z,93.96
2019-06-15T04:09:13.342Z,94.27
2019-06-15T04:10:13.347Z,93.76
2019-06-15T04:11:13.326Z,94.27
2019-06-15T04:12:13.308Z,94.07
2019-06-15T04:13:13.353Z,93.46
2019-06-15T04:14:13.308Z,92.65
2019-06-15T04:15:13.271Z,92.55
2019-06-15T04:16:13.260Z,92.91
2019-06-15T04:17:13.316Z,92.41
2019-06-15T04:18:13.260Z,92.41
2019-06-15T04:19:13.269Z,92.50
2019-06-15T04:20:13.219Z,92.10
2019-06-15T04:21:13.207Z,91.90
2019-06-15T04:22:13.198Z,92.21
2019-06-15T04:23:13.197Z,92.30
2019-06-15T04:24:13.174Z,92.00
2019-06-15T04:25:13.197Z,92.21
2019-06-15T04:26:13.149Z,92.21
2019-06-15T04:27:13.138Z,92.10
2019-06-15T04:28:13.127Z,92.00
2019-06-15T04:29:13.150Z,91.50
2019-06-15T04:30:13.105Z,91.50
2019-06-15T04:31:13.132Z,91.46
2019-06-15T04:32:13.121Z,91.70
2019-06-15T04:33:13.072Z,91.55
2019-06-15T04:34:13.070Z,91.76
2019-06-15T04:35:13.106Z,91.39
2019-06-15T04:36:13.047Z,91.50
2019-06-15T04:37:13.072Z,91.60
2019-06-15T04:38:13.017Z,91.46
2019-06-15T04:39:13.006Z,91.55
2019-06-15T04:40:13.001Z,91.50
2019-06-15T04:41:13.008Z,91.80
2019-06-15T04:42:12.974Z,91.90
2019-06-15T04:43:12.996Z,91.90
2019-06-15T04:44:12.952Z,91.70
2019-06-15T04:45:12.940Z,91.50
2019-06-15T04:46:12.938Z,91.55
2019-06-15T04:47:12.934Z,91.05
2019-06-15T04:48:12.920Z,91.35
2019-06-15T04:49:12.941Z,90.99
2019-06-15T04:50:12.893Z,90.59
2019-06-15T04:51:12.940Z,90.95
2019-06-15T04:52:12.871Z,91.15
2019-06-15T04:53:14.804Z,91.15
2019-06-15T04:54:12.844Z,90.85
2019-06-15T04:55:12.912Z,90.85
2019-06-15T04:56:12.823Z,90.85
2019-06-15T04:57:12.814Z,90.85
2019-06-15T04:58:12.800Z,90.65
2019-06-15T04:59:12.787Z,90.59
2019-06-15T05:00:12.782Z,90.79
2019-06-15T05:01:12.853Z,90.95
2019-06-15T05:02:12.759Z,90.65
2019-06-15T05:03:12.750Z,90.45
2019-06-15T05:04:12.733Z,90.24
2019-06-15T05:05:12.727Z,89.94
2019-06-15T05:06:12.711Z,90.14
2019-06-15T05:07:12.765Z,90.24
2019-06-15T05:08:12.694Z,90.04
2019-06-15T05:09:12.777Z,90.14
2019-06-15T05:10:12.669Z,90.14
2019-06-15T05:11:12.659Z,90.24
2019-06-15T05:12:12.650Z,90.24
2019-06-15T05:13:12.712Z,90.34
2019-06-15T05:14:12.622Z,90.55
2019-06-15T05:15:12.638Z,91.15
2019-06-15T05:16:12.605Z,90.45
2019-06-15T05:17:12.592Z,90.55
2019-06-15T05:18:12.583Z,90.85
2019-06-15T05:19:12.647Z,90.55
2019-06-15T05:20:12.561Z,90.45
2019-06-15T05:21:12.550Z,90.34
2019-06-15T05:22:12.541Z,90.65
2019-06-15T05:23:12.527Z,90.55
2019-06-15T05:24:12.522Z,90.30
2019-06-15T05:25:12.581Z,90.24
2019-06-15T05:26:12.502Z,90.50
2019-06-15T05:27:12.483Z,90.45
2019-06-15T05:28:12.473Z,90.55
2019-06-15T05:29:12.463Z,90.85
2019-06-15T05:30:12.455Z,90.65
2019-06-15T05:31:12.515Z,90.61
2019-06-15T05:32:12.427Z,90.81
2019-06-15T05:33:12.421Z,90.81
2019-06-15T05:34:12.412Z,90.85
2019-06-15T05:35:12.423Z,90.65
2019-06-15T05:36:12.384Z,90.65
2019-06-15T05:37:12.440Z,90.34
2019-06-15T05:38:12.365Z,90.34
2019-06-15T05:39:12.358Z,90.45
2019-06-15T05:40:12.355Z,90.75
2019-06-15T05:41:15.034Z,90.00
2019-06-15T05:42:12.325Z,90.30
2019-06-15T05:43:12.366Z,90.24
2019-06-15T05:44:12.304Z,90.41
2019-06-15T05:45:12.287Z,90.70
2019-06-15T05:46:12.273Z,90.50
2019-06-15T05:47:12.267Z,90.86
2019-06-15T05:48:12.258Z,90.41
2019-06-15T05:49:12.320Z,90.77
2019-06-15T05:50:12.234Z,90.50
2019-06-15T05:51:12.221Z,90.56
2019-06-15T05:52:12.217Z,90.06
2019-06-15T05:53:12.199Z,89.65
2019-06-15T05:54:12.188Z,89.95
2019-06-15T05:55:12.242Z,90.26
2019-06-15T05:56:12.169Z,89.86
2019-06-15T05:57:21.246Z,90.16
2019-06-15T05:58:13.145Z,90.01
2019-06-15T05:59:12.135Z,90.01
2019-06-15T06:00:12.122Z,89.91
2019-06-15T06:01:12.185Z,90.11
2019-06-15T06:02:12.105Z,90.22
2019-06-15T06:03:12.098Z,89.81
2019-06-15T06:04:12.081Z,89.77
2019-06-15T06:05:12.071Z,90.32
2019-06-15T06:06:12.059Z,89.67
2019-06-15T06:07:12.101Z,89.87
2019-06-15T06:08:12.038Z,90.07
2019-06-15T06:09:12.025Z,89.17
2019-06-15T06:10:12.014Z,88.52
2019-06-15T06:11:12.041Z,88.52
2019-06-15T06:12:11.993Z,87.57
2019-06-15T06:13:12.046Z,88.07
2019-06-15T06:14:11.971Z,87.67
2019-06-15T06:15:11.960Z,85.42
2019-06-15T06:16:11.952Z,86.02
2019-06-15T06:17:11.936Z,85.82
2019-06-15T06:18:11.927Z,86.12
2019-06-15T06:19:11.977Z,84.71
2019-06-15T06:20:11.916Z,84.88
2019-06-15T06:21:11.907Z,84.67
2019-06-15T06:22:11.883Z,84.57
2019-06-15T06:23:11.870Z,83.37
2019-06-15T06:24:11.861Z,83.87
2019-06-15T06:25:11.923Z,83.76
2019-06-15T06:26:11.842Z,84.77
2019-06-15T06:27:11.827Z,83.76
2019-06-15T06:28:11.816Z,84.53
2019-06-15T06:29:11.810Z,84.47
2019-06-15T06:30:11.793Z,84.33
2019-06-15T06:31:11.872Z,84.63
2019-06-15T06:32:11.774Z,84.89
2019-06-15T06:33:11.765Z,84.74
2019-06-15T06:34:11.794Z,83.79
2019-06-15T06:35:11.741Z,83.69
2019-06-15T06:36:11.732Z,83.79
2019-06-15T06:37:11.777Z,83.59
2019-06-15T06:38:11.707Z,82.64
2019-06-15T06:39:11.695Z,82.68
2019-06-15T06:40:11.684Z,82.84
2019-06-15T06:41:13.590Z,83.35
2019-06-15T06:42:11.665Z,82.64
2019-06-15T06:43:11.708Z,82.40
2019-06-15T06:44:11.640Z,82.60
2019-06-15T06:45:11.630Z,80.90
2019-06-15T06:46:11.615Z,81.40
2019-06-15T06:47:11.608Z,81.50
2019-06-15T06:48:11.602Z,80.80
2019-06-15T06:49:11.649Z,81.16
2019-06-15T06:50:11.573Z,81.06
2019-06-15T06:51:11.578Z,79.36
2019-06-15T06:52:11.558Z,79.75
2019-06-15T06:53:11.541Z,80.42
2019-06-15T06:54:11.541Z,80.52
2019-06-15T06:55:11.599Z,79.32
2019-06-15T06:56:11.544Z,79.28
2019-06-15T06:57:11.498Z,78.78
2019-06-15T06:58:11.486Z,78.04
2019-06-15T06:59:11.475Z,77.08
2019-06-15T07:00:11.469Z,76.07
2019-06-15T07:01:11.509Z,76.64
2019-06-15T07:02:11.475Z,76.64
2019-06-15T07:03:11.432Z,76.28
2019-06-15T07:04:11.430Z,75.87
2019-06-15T07:05:11.411Z,76.28
2019-06-15T07:06:11.402Z,76.78
2019-06-15T07:07:11.426Z,78.08
2019-06-15T07:08:11.400Z,77.37
2019-06-15T07:09:11.371Z,78.08
2019-06-15T07:10:11.366Z,76.47
2019-06-15T07:11:11.346Z,76.67
2019-06-15T07:12:11.338Z,75.97
2019-06-15T07:13:11.364Z,76.98
2019-06-15T07:14:11.347Z,77.17
2019-06-15T07:15:11.306Z,77.48
2019-06-15T07:16:11.301Z,77.87
2019-06-15T07:17:11.283Z,77.28
2019-06-15T07:18:11.272Z,76.78
2019-06-15T07:19:11.310Z,77.87
2019-06-15T07:20:11.253Z,76.17
2019-06-15T07:21:11.258Z,76.67
2019-06-15T07:22:11.234Z,76.28
2019-06-15T07:23:11.224Z,75.97
2019-06-15T07:24:11.217Z,77.54
2019-06-15T07:25:11.256Z,77.44
2019-06-15T07:26:11.190Z,77.58
2019-06-15T07:27:11.199Z,76.98
2019-06-15T07:28:11.165Z,77.14
2019-06-15T07:29:11.159Z,77.24
2019-06-15T07:30:11.154Z,78.04
2019-06-15T07:31:11.172Z,76.74
2019-06-15T07:32:11.126Z,77.10
2019-06-15T07:33:11.161Z,76.50
2019-06-15T07:34:11.188Z,75.60
2019-06-15T07:35:11.119Z,76.26
2019-06-15T07:36:11.083Z,75.06
2019-06-15T07:37:11.133Z,74.56
2019-06-15T07:38:11.105Z,74.87
2019-06-15T07:39:11.068Z,74.76
2019-06-15T07:40:11.039Z,74.87
2019-06-15T07:41:11.028Z,72.86
2019-06-15T07:42:11.021Z,74.66
2019-06-15T07:43:11.042Z,74.87
2019-06-15T07:44:10.996Z,74.73
2019-06-15T07:45:10.999Z,73.63
2019-06-15T07:46:10.983Z,73.93
2019-06-15T07:47:10.962Z,71.69
2019-06-15T07:48:10.962Z,70.56
2019-06-15T07:49:10.981Z,72.06
2019-06-15T07:50:10.931Z,71.29
2019-06-15T07:51:11.010Z,69.76
2019-06-15T07:52:10.942Z,69.29
2019-06-15T07:53:10.900Z,68.96
2019-06-15T07:54:10.891Z,69.66
2019-06-15T07:55:10.914Z,68.36
2019-06-15T07:56:10.876Z,68.76
2019-06-15T07:57:10.902Z,70.26
2019-06-15T07:58:23.630Z,68.59
2019-06-15T07:59:11.835Z,68.69
2019-06-15T08:00:10.828Z,67.49
2019-06-15T08:01:10.863Z,68.23
2019-06-15T08:02:10.808Z,69.96
2019-06-15T08:03:10.794Z,69.16
2019-06-15T08:04:10.811Z,68.46
2019-06-15T08:05:10.771Z,69.36
2019-06-15T08:06:10.768Z,69.59
2019-06-15T08:07:10.793Z,70.59
2019-06-15T08:08:10.743Z,70.32
2019-06-15T08:09:10.730Z,70.76
2019-06-15T08:10:10.747Z,71.26
2019-06-15T08:11:10.718Z,70.06
2019-06-15T08:12:10.695Z,69.93
2019-06-15T08:13:10.729Z,69.79
2019-06-15T08:14:10.674Z,69.39
2019-06-15T08:15:10.665Z,69.06
2019-06-15T08:16:10.662Z,67.52
2019-06-15T08:17:10.750Z,66.79
2019-06-15T08:18:10.633Z,66.82
2019-06-15T08:19:10.671Z,67.52
2019-06-15T08:20:10.612Z,68.93
2019-06-15T08:21:10.601Z,69.32
2019-06-15T08:22:10.594Z,67.86
2019-06-15T08:23:10.605Z,68.55
2019-06-15T08:24:10.583Z,68.05
2019-06-15T08:25:10.601Z,68.66
2019-06-15T08:26:10.554Z,69.16
2019-06-15T08:27:10.542Z,68.26
2019-06-15T08:28:10.526Z,67.86
2019-06-15T08:29:10.568Z,69.06
2019-06-15T08:30:10.511Z,68.96
2019-06-15T08:31:10.546Z,69.56
2019-06-15T08:32:10.485Z,67.99
2019-06-15T08:33:10.475Z,69.19
2019-06-15T08:34:10.627Z,67.59
2019-06-15T08:35:10.467Z,66.28
2019-06-15T08:36:10.636Z,66.19
2019-06-15T08:37:10.490Z,65.75
2019-06-15T08:38:10.420Z,66.16
2019-06-15T08:39:10.417Z,65.66
2019-06-15T08:40:10.423Z,65.62
2019-06-15T08:41:10.480Z,66.42
2019-06-15T08:42:10.396Z,67.43
2019-06-15T08:43:10.404Z,65.49
2019-06-15T08:44:10.374Z,64.29
2019-06-15T08:45:10.343Z,65.33
2019-06-15T08:46:10.346Z,62.72
2019-06-15T08:47:10.322Z,63.49
2019-06-15T08:48:10.311Z,64.79
2019-06-15T08:49:10.399Z,65.59
2019-06-15T08:50:10.296Z,66.16
2019-06-15T08:51:10.288Z,64.66
2019-06-15T08:52:10.278Z,64.26
2019-06-15T08:53:10.267Z,63.46
2019-06-15T08:54:10.248Z,61.57
2019-06-15T08:55:10.307Z,61.46
2019-06-15T08:56:10.265Z,61.57
2019-06-15T08:57:10.215Z,61.26
2019-06-15T08:58:10.211Z,61.16
2019-06-15T08:59:10.205Z,60.96
2019-06-15T09:00:10.193Z,60.16
2019-06-15T09:01:10.222Z,61.96
2019-06-15T09:02:10.163Z,61.93
2019-06-15T09:03:10.163Z,61.43
2019-06-15T09:04:10.142Z,62.43
2019-06-15T09:05:10.159Z,61.33
2019-06-15T09:06:10.126Z,61.83
2019-06-15T09:07:10.148Z,61.30
2019-06-15T09:08:10.126Z,61.30
2019-06-15T09:09:10.158Z,61.10
2019-06-15T09:10:10.078Z,60.61
2019-06-15T09:11:10.100Z,60.41
2019-06-15T09:12:10.051Z,60.91
2019-06-15T09:13:10.091Z,60.44
2019-06-15T09:14:10.030Z,60.33
2019-06-15T09:15:10.022Z,61.71
2019-06-15T09:16:10.021Z,61.90
2019-06-15T09:17:10.008Z,61.00
2019-06-15T09:18:09.984Z,60.38
2019-06-15T09:19:10.016Z,60.48
2019-06-15T09:20:09.987Z,60.08
2019-06-15T09:21:09.953Z,60.25
2019-06-15T09:22:09.946Z,59.85
2019-06-15T09:23:09.937Z,60.25
2019-06-15T09:24:09.925Z,60.82
2019-06-15T09:25:09.976Z,58.72
2019-06-15T09:26:09.899Z,58.72
2019-06-15T09:27:09.890Z,59.82
2019-06-15T09:28:09.928Z,60.42
2019-06-15T09:29:11.601Z,58.53
2019-06-15T09:30:09.856Z,57.23
2019-06-15T09:31:09.916Z,58.75
2019-06-15T09:32:09.837Z,58.45
2019-06-15T09:33:09.826Z,60.25
2019-06-15T09:34:18.404Z,58.55
2019-06-15T09:35:10.804Z,59.65
2019-06-15T09:36:09.794Z,60.28
2019-06-15T09:37:09.857Z,59.85
2019-06-15T09:38:09.769Z,60.15
2019-06-15T09:39:09.766Z,59.49
2019-06-15T09:40:09.750Z,58.00
2019-06-15T09:41:09.746Z,56.70
2019-06-15T09:42:09.726Z,57.23
2019-06-15T09:43:09.781Z,56.70
2019-06-15T09:44:09.708Z,57.93
2019-06-15T09:45:09.694Z,57.35
2019-06-15T09:46:09.689Z,57.82
2019-06-15T09:47:09.669Z,58.33
2019-06-15T09:48:09.669Z,58.65
2019-06-15T09:49:09.704Z,58.68
2019-06-15T09:50:09.638Z,60.71
2019-06-15T09:51:09.627Z,60.31
2019-06-15T09:52:09.618Z,60.93
2019-06-15T09:53:09.607Z,59.94
2019-06-15T09:54:09.594Z,60.33
2019-06-15T09:55:09.626Z,61.33
2019-06-15T09:56:09.577Z,61.54
2019-06-15T09:57:09.564Z,62.93
2019-06-15T09:58:09.551Z,62.73
2019-06-15T09:59:09.542Z,61.54
2019-06-15T10:00:09.530Z,63.63
2019-06-15T10:01:09.587Z,63.17
2019-06-15T10:02:09.551Z,61.96
2019-06-15T10:03:09.495Z,62.96
2019-06-15T10:04:09.510Z,63.59
2019-06-15T10:05:09.484Z,62.42
2019-06-15T10:06:11.685Z,63.32
2019-06-15T10:07:09.514Z,64.22
2019-06-15T10:08:09.449Z,64.42
2019-06-15T10:09:09.432Z,64.72
2019-06-15T10:10:09.437Z,64.32
2019-06-15T10:11:09.408Z,66.32
2019-06-15T10:12:09.413Z,64.59
2019-06-15T10:13:09.428Z,65.19
2019-06-15T10:14:09.382Z,63.69
2019-06-15T10:15:09.368Z,63.96
2019-06-15T10:16:09.354Z,63.56
2019-06-15T10:17:09.343Z,64.26
2019-06-15T10:18:09.328Z,64.23
2019-06-15T10:19:09.356Z,64.10
2019-06-15T10:20:09.342Z,63.70
2019-06-15T10:21:09.298Z,63.30
2019-06-15T10:22:09.287Z,63.30
2019-06-15T10:23:09.308Z,61.80
2019-06-15T10:24:09.284Z,62.83
2019-06-15T10:25:09.304Z,62.53
2019-06-15T10:26:09.284Z,63.46
2019-06-15T10:27:09.244Z,63.26
2019-06-15T10:28:09.227Z,60.29
2019-06-15T10:29:09.209Z,60.22
2019-06-15T10:30:09.203Z,61.42
2019-06-15T10:31:09.255Z,60.39
2019-06-15T10:32:09.175Z,61.16
2019-06-15T10:33:09.167Z,59.56
2019-06-15T10:34:09.153Z,60.96
2019-06-15T10:35:09.162Z,61.83
2019-06-15T10:36:09.771Z,61.10
2019-06-15T10:37:09.178Z,59.01
2019-06-15T10:38:09.109Z,59.64
2019-06-15T10:39:09.106Z,60.06
2019-06-15T10:40:09.097Z,60.36
2019-06-15T10:41:09.073Z,60.96
2019-06-15T10:42:09.089Z,61.26
2019-06-15T10:43:09.092Z,62.29
2019-06-15T10:44:09.044Z,63.12
2019-06-15T10:45:09.056Z,63.32
2019-06-15T10:46:09.019Z,64.45
2019-06-15T10:47:09.008Z,64.65
2019-06-15T10:48:09.016Z,65.95
2019-06-15T10:49:09.035Z,66.89
2019-06-15T10:50:08.974Z,66.69
2019-06-15T10:51:08.980Z,66.78
2019-06-15T10:52:08.955Z,66.72
2019-06-15T10:53:08.939Z,66.92
2019-06-15T10:54:08.927Z,67.19
2019-06-15T10:55:08.952Z,67.05
2019-06-15T10:56:08.918Z,66.49
2019-06-15T10:57:08.895Z,67.29
2019-06-15T10:58:08.894Z,66.99
2019-06-15T10:59:08.880Z,67.32
2019-06-15T11:00:08.897Z,67.62
2019-06-15T11:01:08.903Z,68.22
2019-06-15T11:02:08.848Z,68.92
2019-06-15T11:03:08.839Z,69.23
2019-06-15T11:04:08.827Z,68.15
2019-06-15T11:05:08.823Z,67.45
2019-06-15T11:06:08.812Z,67.65
2019-06-15T11:07:08.851Z,68.85
2019-06-15T11:08:09.041Z,69.46
2019-06-15T11:09:08.790Z,69.56
2019-06-15T11:10:08.755Z,69.86
2019-06-15T11:11:08.754Z,69.12
2019-06-15T11:12:08.733Z,69.35
2019-06-15T11:13:08.781Z,69.42
2019-06-15T11:14:08.721Z,67.82
2019-06-15T11:15:08.700Z,67.92
2019-06-15T11:16:08.710Z,68.09
2019-06-15T11:17:08.680Z,67.66
2019-06-15T11:18:08.671Z,67.96
2019-06-15T11:19:08.705Z,67.52
2019-06-15T11:20:08.652Z,67.93
2019-06-15T11:21:08.651Z,67.40
2019-06-15T11:22:08.636Z,66.73
2019-06-15T11:23:08.639Z,64.17
2019-06-15T11:24:08.603Z,63.04
2019-06-15T11:25:08.632Z,62.81
2019-06-15T11:26:08.589Z,61.82
2019-06-15T11:27:08.573Z,61.35
2019-06-15T11:28:08.560Z,63.14
2019-06-15T11:29:08.550Z,63.14
2019-06-15T11:30:13.660Z,62.34
2019-06-15T11:31:09.563Z,63.61
2019-06-15T11:32:08.542Z,62.94
2019-06-15T11:33:08.528Z,63.64
2019-06-15T11:34:08.502Z,63.24
2019-06-15T11:35:08.509Z,63.87
2019-06-15T11:36:08.477Z,64.74
2019-06-15T11:37:11.632Z,62.57
2019-06-15T11:38:08.453Z,62.77
2019-06-15T11:39:08.445Z,63.27
2019-06-15T11:40:08.459Z,63.17
2019-06-15T11:41:08.431Z,63.37
2019-06-15T11:42:08.412Z,63.87
2019-06-15T11:43:08.450Z,65.07
2019-06-15T11:44:08.394Z,63.74
2019-06-15T11:45:08.382Z,63.04
2019-06-15T11:46:08.394Z,62.94
2019-06-15T11:47:08.361Z,62.41
2019-06-15T11:48:08.358Z,63.48
2019-06-15T11:49:08.390Z,62.26
2019-06-15T11:50:11.757Z,61.79
2019-06-15T11:51:08.324Z,61.88
2019-06-15T11:52:08.327Z,62.51
2019-06-15T11:53:08.296Z,62.81
2019-06-15T11:54:08.285Z,62.81
2019-06-15T11:55:08.412Z,63.61
2019-06-15T11:56:08.265Z,62.61
2019-06-15T11:57:08.251Z,62.71
2019-06-15T11:58:08.261Z,63.01
2019-06-15T11:59:08.229Z,63.61
2019-06-15T12:00:08.220Z,62.21
2019-06-15T12:01:08.246Z,61.39
2019-06-15T12:02:08.197Z,62.08
2019-06-15T12:03:08.192Z,61.06
2019-06-15T12:04:08.205Z,61.76
2019-06-15T12:05:08.168Z,62.26
2019-06-15T12:06:08.153Z,60.80
2019-06-15T12:07:08.179Z,60.00
2019-06-15T12:08:08.134Z,59.68
2019-06-15T12:09:08.122Z,59.82
2019-06-15T12:10:08.114Z,57.93
2019-06-15T12:11:08.113Z,59.79
2019-06-15T12:12:08.091Z,60.22
2019-06-15T12:13:08.123Z,61.37
2019-06-15T12:14:08.073Z,61.57
2019-06-15T12:15:08.060Z,62.13
2019-06-15T12:16:08.051Z,62.62
2019-06-15T12:17:08.085Z,62.65
2019-06-15T12:18:08.029Z,63.48
2019-06-15T12:19:08.053Z,64.21
2019-06-15T12:20:08.006Z,65.11
2019-06-15T12:21:07.997Z,63.81
2019-06-15T12:22:07.985Z,63.42
2019-06-15T12:23:07.989Z,62.26
2019-06-15T12:24:08.006Z,61.44
2019-06-15T12:25:08.038Z,58.80
2019-06-15T12:26:07.944Z,58.17
2019-06-15T12:27:07.988Z,57.55
2019-06-15T12:28:08.736Z,58.10
2019-06-15T12:29:08.030Z,59.25
2019-06-15T12:30:08.368Z,58.48
2019-06-15T12:31:07.961Z,58.48
2019-06-15T12:32:07.890Z,59.48
2019-06-15T12:33:08.073Z,59.86
2019-06-15T12:34:07.860Z,57.53
2019-06-15T12:35:07.853Z,57.92
2019-06-15T12:36:18.739Z,57.08
2019-06-15T12:37:08.870Z,58.43
2019-06-15T12:38:07.820Z,58.03
2019-06-15T12:39:07.808Z,58.67
2019-06-15T12:40:07.797Z,57.87
2019-06-15T12:41:07.809Z,58.30
2019-06-15T12:42:07.782Z,58.03
2019-06-15T12:43:07.809Z,57.93
2019-06-15T12:44:07.757Z,59.05
2019-06-15T12:45:07.827Z,59.65
2019-06-15T12:46:07.735Z,58.06
2019-06-15T12:47:07.749Z,58.65
2019-06-15T12:48:07.718Z,57.08
2019-06-15T12:49:07.755Z,58.25
2019-06-15T12:50:07.729Z,57.51
2019-06-15T12:51:07.682Z,57.93
2019-06-15T12:52:07.675Z,58.03